Terminal Aerodrome Forecast
Issued by NWS

Home | Current Version | Previous Version | Text Only | Print | Product List | Glossary On
Versions: 1 2 3 4 5 6 7 8 9 10 11 12 13 14 15 16 17 18 19
000
FTUS44 KEPZ 311136
TAFDMN
TAF
KDMN 311136Z 3112/0112 VRB05KT P6SM -SHRA FEW050 BKN090
     FM311500 09006KT P6SM SCT090 BKN250
     FM312200 15008KT P6SM VCTS SCT080CB SCT250=

USA.gov is the U.S. government's official web portal to all federal, state and local government web resources and services.